createdAt,value
2022-10-31T00:00:22.920Z,54.15
2022-10-31T00:02:59.486Z,45.85
2022-10-31T00:05:49.492Z,38.33
2022-10-31T00:08:22.767Z,38.47
2022-10-31T00:11:55.154Z,43.53
2022-10-31T00:14:57.610Z,57.00
2022-10-31T00:17:29.615Z,56.38
2022-10-31T00:20:00.860Z,60.33
2022-10-31T00:22:33.740Z,51.65
2022-10-31T00:25:03.780Z,52.47
2022-10-31T00:27:41.357Z,57.42
2022-10-31T00:30:17.724Z,50.17
2022-10-31T00:32:54.713Z,55.53
2022-10-31T00:35:30.967Z,58.67
2022-10-31T00:38:04.525Z,57.33
2022-10-31T00:40:41.841Z,56.90
2022-10-31T00:43:15.329Z,63.60
2022-10-31T00:45:47.424Z,54.20
2022-10-31T00:48:19.205Z,62.65
2022-10-31T00:50:48.897Z,55.55
2022-10-31T00:53:19.164Z,56.15
2022-10-31T00:55:50.880Z,53.47
2022-10-31T00:58:23.915Z,52.85
2022-10-31T01:01:09.616Z,51.03
2022-10-31T01:03:46.824Z,58.78
2022-10-31T01:06:20.128Z,54.80
2022-10-31T01:08:56.188Z,58.72
2022-10-31T01:11:25.851Z,58.90
2022-10-31T01:16:40.480Z,59.10
2022-10-31T01:19:21.689Z,64.32
2022-10-31T01:22:02.078Z,58.92
2022-10-31T01:24:34.706Z,60.30
2022-10-31T01:27:28.272Z,58.17
2022-10-31T01:30:23.286Z,54.25
2022-10-31T01:33:14.990Z,55.53
2022-10-31T01:35:55.788Z,56.60
2022-10-31T01:38:37.666Z,47.63
2022-10-31T01:41:31.955Z,50.80
2022-10-31T01:45:01.582Z,45.65
2022-10-31T01:48:33.749Z,28.98
2022-10-31T01:51:40.826Z,37.55
2022-10-31T01:54:42.864Z,50.35
2022-10-31T01:57:26.841Z,45.60
2022-10-31T02:00:34.849Z,51.15
2022-10-31T02:03:38.163Z,48.88
2022-10-31T02:06:59.646Z,56.58
2022-10-31T02:10:48.653Z,56.28
2022-10-31T02:16:38.655Z,57.72
2022-10-31T02:19:46.924Z,52.25
2022-10-31T02:22:39.103Z,56.65
2022-10-31T02:25:49.558Z,47.72
2022-10-31T02:28:57.510Z,58.80
2022-10-31T02:31:44.401Z,54.53
2022-10-31T02:34:50.639Z,56.85
2022-10-31T02:38:10.989Z,52.97
2022-10-31T02:41:13.948Z,55.15
2022-10-31T02:47:28.129Z,52.85
2022-10-31T02:50:04.157Z,52.85
2022-10-31T02:52:37.581Z,45.60
2022-10-31T02:55:51.126Z,49.95
2022-10-31T02:58:30.862Z,51.58
2022-10-31T03:01:25.567Z,52.97
2022-10-31T03:04:33.007Z,49.83
2022-10-31T03:07:15.587Z,48.88
2022-10-31T03:10:18.706Z,51.10
2022-10-31T03:13:10.302Z,46.17
2022-10-31T03:15:55.155Z,50.58
2022-10-31T03:19:10.753Z,47.47
2022-10-31T03:22:29.190Z,43.53
2022-10-31T03:25:07.108Z,44.47
2022-10-31T03:30:48.909Z,39.87
2022-10-31T03:33:39.004Z,46.33
2022-10-31T03:42:33.048Z,37.58
2022-10-31T03:45:30.956Z,33.30
2022-10-31T03:48:15.456Z,36.35
2022-10-31T03:50:55.419Z,36.85
2022-10-31T03:54:04.036Z,34.72
2022-10-31T03:57:00.142Z,35.47
2022-10-31T04:00:02.741Z,32.28
2022-10-31T04:03:28.036Z,31.83
2022-10-31T04:06:21.318Z,37.30
2022-10-31T04:12:52.148Z,27.67
2022-10-31T04:15:42.941Z,35.83
2022-10-31T04:21:15.890Z,31.95
2022-10-31T04:23:51.012Z,35.38
2022-10-31T04:26:31.365Z,30.17
2022-10-31T04:29:00.567Z,27.48
2022-10-31T04:31:34.462Z,35.17
2022-10-31T04:34:06.955Z,28.13
2022-10-31T04:36:49.972Z,30.85
2022-10-31T04:39:22.766Z,28.70
2022-10-31T04:42:22.307Z,24.80
2022-10-31T04:44:59.599Z,27.73
2022-10-31T04:50:42.323Z,27.77
2022-10-31T04:53:31.504Z,26.95
2022-10-31T04:56:39.805Z,25.98
2022-10-31T04:59:31.448Z,32.15
2022-10-31T05:02:02.617Z,25.45
2022-10-31T05:05:05.990Z,26.27
2022-10-31T05:08:17.772Z,24.00
2022-10-31T05:11:13.299Z,25.83
2022-10-31T05:14:29.360Z,25.52
2022-10-31T05:17:32.891Z,21.90
2022-10-31T05:20:32.629Z,26.10
2022-10-31T05:26:46.867Z,22.55
2022-10-31T05:29:22.432Z,24.88
2022-10-31T05:32:46.574Z,20.50
2022-10-31T05:35:42.015Z,24.27
2022-10-31T05:38:37.785Z,21.30
2022-10-31T05:41:24.044Z,24.17
2022-10-31T05:44:21.809Z,25.05
2022-10-31T05:47:31.181Z,24.73
2022-10-31T05:50:42.104Z,21.92
2022-10-31T05:53:49.763Z,24.85
2022-10-31T05:56:31.507Z,21.25
2022-10-31T06:02:22.634Z,24.02
2022-10-31T06:10:44.740Z,23.67
2022-10-31T06:13:55.885Z,26.38
2022-10-31T06:19:35.282Z,27.80
2022-10-31T06:22:04.964Z,21.10
2022-10-31T06:24:41.555Z,22.35
2022-10-31T06:27:36.685Z,28.70
2022-10-31T06:30:14.489Z,21.88
2022-10-31T06:32:47.092Z,23.52
2022-10-31T06:35:15.481Z,20.40
2022-10-31T06:37:49.665Z,24.77
2022-10-31T06:40:41.308Z,30.45
2022-10-31T06:43:34.566Z,32.03
2022-10-31T06:46:25.433Z,25.77
2022-10-31T06:52:11.169Z,29.92
2022-10-31T06:54:44.827Z,25.08
2022-10-31T06:57:20.187Z,28.65
2022-10-31T07:03:19.405Z,26.75
2022-10-31T07:06:00.958Z,24.45
2022-10-31T07:11:21.236Z,30.30
2022-10-31T07:14:19.318Z,35.97
2022-10-31T07:17:29.907Z,30.77
2022-10-31T07:20:44.437Z,30.40
2022-10-31T07:23:20.853Z,32.05
2022-10-31T07:26:21.192Z,26.05
2022-10-31T07:29:18.627Z,24.85
2022-10-31T07:32:27.239Z,30.85
2022-10-31T07:35:17.947Z,29.70
2022-10-31T07:38:35.863Z,32.92
2022-10-31T07:44:56.840Z,33.92
2022-10-31T07:55:00.011Z,35.25
2022-10-31T07:58:13.689Z,32.70
2022-10-31T08:00:54.296Z,39.53
2022-10-31T08:16:30.027Z,24.60
2022-10-31T08:19:02.451Z,26.07
2022-10-31T08:21:40.008Z,26.05
2022-10-31T08:24:10.792Z,27.08
2022-10-31T08:27:27.918Z,28.90
2022-10-31T08:34:01.509Z,31.30
2022-10-31T08:37:06.520Z,35.78
2022-10-31T08:39:48.885Z,34.58
2022-10-31T08:45:47.957Z,35.10
2022-10-31T08:49:37.368Z,41.80
2022-10-31T08:53:39.338Z,39.15
2022-10-31T08:59:54.259Z,47.10
2022-10-31T09:07:20.650Z,44.40
2022-10-31T09:26:18.509Z,43.75
2022-10-31T09:45:20.453Z,36.97
2022-10-31T09:52:20.748Z,38.97
2022-10-31T09:56:02.710Z,41.67
2022-10-31T09:59:05.297Z,40.25
2022-10-31T10:02:04.356Z,36.70
2022-10-31T10:05:09.575Z,43.80
2022-10-31T10:08:24.060Z,44.75
2022-10-31T10:12:02.127Z,48.58
2022-10-31T10:15:54.324Z,45.83
2022-10-31T10:19:17.026Z,47.55
2022-10-31T10:22:35.979Z,54.95
2022-10-31T10:25:50.333Z,49.63
2022-10-31T10:32:20.044Z,50.45
2022-10-31T10:42:40.805Z,49.00
2022-10-31T10:45:43.408Z,49.90
2022-10-31T10:48:39.436Z,49.13
2022-10-31T10:51:31.832Z,52.90
2022-10-31T10:55:03.944Z,48.80
2022-10-31T10:58:08.480Z,47.78
2022-10-31T11:01:04.344Z,47.20
2022-10-31T11:06:39.669Z,56.75
2022-10-31T11:09:18.595Z,56.28
2022-10-31T11:12:44.440Z,50.95
2022-10-31T11:15:49.166Z,49.80
2022-10-31T11:18:29.246Z,42.75
2022-10-31T11:26:28.879Z,48.92
2022-10-31T11:29:06.025Z,48.60
2022-10-31T11:31:36.810Z,47.47
2022-10-31T11:34:12.331Z,47.05
2022-10-31T11:37:27.904Z,47.28
2022-10-31T11:43:28.255Z,49.00
2022-10-31T11:46:17.724Z,46.50
2022-10-31T11:49:07.851Z,48.00
2022-10-31T11:51:53.956Z,43.58
2022-10-31T11:55:11.995Z,45.58
2022-10-31T11:57:53.622Z,47.50
2022-10-31T12:00:54.375Z,41.50
2022-10-31T12:03:24.784Z,45.10
2022-10-31T12:06:19.821Z,46.67
2022-10-31T12:08:51.245Z,44.60
2022-10-31T12:14:43.127Z,46.40
2022-10-31T12:17:25.681Z,45.78
2022-10-31T12:20:34.130Z,44.95
2022-10-31T12:23:48.604Z,48.20
2022-10-31T12:26:39.391Z,50.20
2022-10-31T12:29:26.493Z,42.53
2022-10-31T12:32:12.131Z,44.38
2022-10-31T12:35:03.471Z,42.08
2022-10-31T12:37:49.605Z,42.72
2022-10-31T12:40:55.445Z,48.13
2022-10-31T12:43:56.811Z,47.80
2022-10-31T12:47:09.011Z,44.53
2022-10-31T12:50:36.192Z,50.08
2022-10-31T12:56:15.602Z,43.53
2022-10-31T12:59:09.298Z,48.88
2022-10-31T13:01:59.331Z,46.90
2022-10-31T13:05:04.665Z,51.72
2022-10-31T13:07:48.164Z,51.70
2022-10-31T13:10:29.443Z,51.38
2022-10-31T13:13:04.216Z,47.17
2022-10-31T13:15:40.194Z,46.42
2022-10-31T13:18:18.285Z,45.78
2022-10-31T13:20:54.554Z,45.83
2022-10-31T13:23:54.499Z,45.63
2022-10-31T13:26:44.554Z,46.60
2022-10-31T13:29:34.393Z,46.45
2022-10-31T13:32:09.005Z,44.67
2022-10-31T13:34:53.766Z,44.72
2022-10-31T13:37:42.384Z,41.92
2022-10-31T13:40:47.571Z,49.45
2022-10-31T13:46:27.385Z,45.60
2022-10-31T13:48:59.695Z,43.20
2022-10-31T13:51:35.127Z,40.67
2022-10-31T13:54:21.436Z,38.33
2022-10-31T13:56:57.055Z,42.22
2022-10-31T13:59:27.459Z,41.85
2022-10-31T14:02:01.875Z,44.90
2022-10-31T14:04:40.451Z,43.83
2022-10-31T14:07:32.273Z,39.00
2022-10-31T14:10:20.623Z,37.80
2022-10-31T14:12:54.532Z,40.42
2022-10-31T14:15:29.951Z,37.20
2022-10-31T14:18:44.720Z,37.60
2022-10-31T14:21:44.196Z,39.95
2022-10-31T14:24:39.737Z,34.97
2022-10-31T14:27:29.416Z,43.20
2022-10-31T14:30:30.150Z,43.05
2022-10-31T14:33:14.511Z,37.00
2022-10-31T14:36:08.421Z,36.13
2022-10-31T14:39:33.687Z,41.92
2022-10-31T14:49:20.185Z,45.55
2022-10-31T14:52:01.844Z,41.08
2022-10-31T14:54:46.584Z,39.40
2022-10-31T14:57:43.252Z,38.67
2022-10-31T15:00:23.502Z,37.25
2022-10-31T15:03:44.542Z,39.25
2022-10-31T15:06:28.130Z,46.22
2022-10-31T15:09:02.781Z,44.72
2022-10-31T15:14:41.861Z,36.65
2022-10-31T15:17:17.944Z,39.90
2022-10-31T15:19:48.207Z,41.55
2022-10-31T15:22:20.776Z,39.78
2022-10-31T15:25:04.175Z,41.65
2022-10-31T15:27:37.344Z,43.35
2022-10-31T15:30:19.483Z,41.25
2022-10-31T15:32:57.384Z,42.58
2022-10-31T15:35:28.777Z,49.50
2022-10-31T15:37:57.401Z,37.47
2022-10-31T15:40:27.072Z,39.28
2022-10-31T15:43:04.760Z,46.08
2022-10-31T15:45:34.156Z,38.50
2022-10-31T15:48:13.839Z,42.72
2022-10-31T15:53:46.105Z,46.75
2022-10-31T15:56:24.284Z,47.35
2022-10-31T15:58:53.978Z,43.78
2022-10-31T16:01:28.995Z,51.13
2022-10-31T16:04:01.568Z,47.42
2022-10-31T16:06:28.938Z,50.45
2022-10-31T16:08:57.463Z,47.47
2022-10-31T16:11:33.605Z,53.83
2022-10-31T16:14:18.476Z,46.67
2022-10-31T16:16:57.582Z,47.70
2022-10-31T16:19:30.329Z,50.97
2022-10-31T16:22:08.326Z,53.55
2022-10-31T16:25:02.934Z,44.17
2022-10-31T16:27:33.948Z,49.35
2022-10-31T16:30:02.716Z,46.67
2022-10-31T16:32:36.070Z,53.33
2022-10-31T16:35:32.552Z,48.85
2022-10-31T16:38:00.765Z,44.00
2022-10-31T16:40:29.873Z,50.22
2022-10-31T16:43:00.701Z,47.95
2022-10-31T16:45:31.412Z,47.45
2022-10-31T16:48:13.051Z,51.28
2022-10-31T16:50:41.297Z,47.00
2022-10-31T16:53:15.692Z,48.47
2022-10-31T16:56:24.139Z,48.78
2022-10-31T16:58:51.726Z,55.53
2022-10-31T17:01:21.448Z,54.05
2022-10-31T17:03:48.968Z,55.88
2022-10-31T17:06:22.648Z,61.58
2022-10-31T17:08:51.481Z,57.15
2022-10-31T17:11:26.223Z,49.78
2022-10-31T17:14:07.071Z,56.63
2022-10-31T17:16:48.937Z,49.75
2022-10-31T17:19:22.771Z,48.10
2022-10-31T17:21:50.684Z,48.55
2022-10-31T17:24:20.791Z,57.22
2022-10-31T17:26:47.957Z,57.50
2022-10-31T17:29:16.478Z,49.45
2022-10-31T17:31:45.179Z,46.15
2022-10-31T17:34:15.607Z,43.28
2022-10-31T17:36:50.765Z,60.83
2022-10-31T17:39:18.792Z,55.88
2022-10-31T17:41:47.501Z,61.60
2022-10-31T17:44:17.484Z,101.82
2022-10-31T17:46:46.184Z,84.43
2022-10-31T17:49:13.543Z,84.85
2022-10-31T17:51:40.572Z,72.38
2022-10-31T17:54:13.158Z,76.88
2022-10-31T17:56:40.726Z,69.45
2022-10-31T17:59:09.746Z,67.22
2022-10-31T18:01:41.924Z,63.88
2022-10-31T18:04:10.399Z,66.90
2022-10-31T18:06:37.364Z,65.22
2022-10-31T18:09:07.437Z,60.40
2022-10-31T18:11:56.496Z,49.17
2022-10-31T18:14:25.374Z,59.15
2022-10-31T18:16:54.112Z,62.92
2022-10-31T18:19:21.410Z,56.60
2022-10-31T18:21:54.202Z,53.85
2022-10-31T18:24:29.247Z,58.22
2022-10-31T18:27:01.459Z,62.45
2022-10-31T18:29:33.290Z,67.82
2022-10-31T18:32:09.082Z,66.78
2022-10-31T18:34:42.213Z,76.55
2022-10-31T18:37:13.882Z,71.45
2022-10-31T18:39:49.998Z,70.90
2022-10-31T18:42:30.818Z,50.95
2022-10-31T18:45:12.107Z,54.60
2022-10-31T18:48:00.103Z,54.05
2022-10-31T18:50:28.452Z,53.20
2022-10-31T18:53:07.291Z,52.47
2022-10-31T18:55:47.536Z,52.33
2022-10-31T18:58:22.638Z,48.72
2022-10-31T19:00:55.231Z,49.00
2022-10-31T19:03:30.198Z,45.15
2022-10-31T19:05:57.303Z,53.97
2022-10-31T19:11:17.762Z,46.72
2022-10-31T19:13:53.934Z,45.33
2022-10-31T19:16:21.284Z,48.08
2022-10-31T19:18:48.252Z,41.03
2022-10-31T19:21:21.161Z,45.03
2022-10-31T19:23:55.173Z,46.55
2022-10-31T19:26:43.018Z,45.15
2022-10-31T19:29:10.751Z,45.60
2022-10-31T19:31:40.847Z,41.47
2022-10-31T19:34:15.871Z,42.55
2022-10-31T19:39:27.913Z,37.08
2022-10-31T19:41:59.774Z,41.22
2022-10-31T19:44:43.574Z,35.63
2022-10-31T19:50:06.108Z,37.70
2022-10-31T19:52:36.432Z,35.63
2022-10-31T19:55:11.409Z,34.70
2022-10-31T19:58:11.848Z,36.03
2022-10-31T20:00:32.792Z,34.55
2022-10-31T20:06:14.621Z,34.13
2022-10-31T20:08:42.396Z,34.03
2022-10-31T20:11:11.286Z,31.88
2022-10-31T20:13:42.448Z,29.33
2022-10-31T20:16:11.827Z,31.58
2022-10-31T20:18:41.134Z,31.58
2022-10-31T20:21:29.644Z,34.35
2022-10-31T20:24:05.985Z,32.55
2022-10-31T20:26:39.336Z,31.40
2022-10-31T20:29:19.309Z,32.75
2022-10-31T20:31:51.866Z,28.77
2022-10-31T20:34:20.928Z,30.80
2022-10-31T20:37:01.650Z,33.40
2022-10-31T20:39:42.345Z,28.70
2022-10-31T20:45:22.582Z,27.77
2022-10-31T20:47:59.831Z,25.67
2022-10-31T20:50:34.074Z,28.85
2022-10-31T20:53:07.254Z,28.08
2022-10-31T20:55:36.185Z,30.23
2022-10-31T20:58:09.997Z,28.70
2022-10-31T21:00:57.101Z,26.42
2022-10-31T21:03:29.871Z,25.40
2022-10-31T21:06:03.069Z,17.42
2022-10-31T21:08:47.559Z,32.72
2022-10-31T21:11:22.749Z,27.55
2022-10-31T21:14:11.464Z,32.70
2022-10-31T21:16:40.165Z,30.65
2022-10-31T21:19:19.697Z,29.13
2022-10-31T21:22:00.882Z,27.00
2022-10-31T21:24:48.626Z,29.50
2022-10-31T21:27:21.337Z,26.77
2022-10-31T21:29:52.997Z,31.35
2022-10-31T21:32:21.473Z,30.55
2022-10-31T21:35:19.645Z,29.33
2022-10-31T21:38:13.466Z,25.33
2022-10-31T21:40:52.871Z,25.67
2022-10-31T21:43:41.371Z,22.92
2022-10-31T21:46:21.793Z,24.20
2022-10-31T21:49:23.394Z,22.33
2022-10-31T21:51:58.289Z,21.20
2022-10-31T21:54:28.721Z,23.55
2022-10-31T21:57:27.778Z,22.05
2022-10-31T22:00:21.541Z,22.73
2022-10-31T22:02:57.865Z,22.08
2022-10-31T22:05:41.362Z,21.42
2022-10-31T22:08:18.581Z,20.65
2022-10-31T22:10:48.191Z,19.60
2022-10-31T22:13:15.693Z,19.00
2022-10-31T22:15:47.009Z,21.88
2022-10-31T22:18:23.490Z,18.67
2022-10-31T22:20:53.426Z,21.60
2022-10-31T22:24:01.857Z,21.83
2022-10-31T22:26:34.333Z,22.48
2022-10-31T22:29:11.235Z,32.92
2022-10-31T22:31:50.774Z,35.75
2022-10-31T22:34:27.094Z,28.52
2022-10-31T22:37:04.766Z,24.15
2022-10-31T22:39:51.690Z,23.55
2022-10-31T22:42:20.577Z,32.38
2022-10-31T22:45:08.269Z,32.85
2022-10-31T22:47:44.375Z,37.70
2022-10-31T22:50:25.620Z,37.83
2022-10-31T22:56:42.938Z,38.88
2022-10-31T22:59:28.902Z,42.40
2022-10-31T23:02:56.431Z,51.20
2022-10-31T23:05:35.658Z,35.42
2022-10-31T23:08:09.205Z,29.57
2022-10-31T23:10:46.967Z,25.88
2022-10-31T23:13:50.117Z,24.05
2022-10-31T23:16:47.380Z,26.23
2022-10-31T23:19:34.311Z,27.15
2022-10-31T23:22:09.371Z,21.50
2022-10-31T23:24:43.452Z,20.35
2022-10-31T23:27:29.883Z,21.08
2022-10-31T23:33:53.884Z,23.65
2022-10-31T23:40:25.470Z,17.67
2022-10-31T23:43:21.711Z,23.65
2022-10-31T23:45:56.806Z,21.23
2022-10-31T23:48:59.499Z,20.83
2022-10-31T23:59:04.523Z,25.40
